Hicks Airfield Weather

No METAR data is available for Hicks Airfield, and nearby Alliance Airport's METAR data is commonly used by area pilots. Weather infomation is also available on 126.925 mhz.

  • Current KAFW METAR
    (5.8nm NE) VFR
    Raw Text: KAFW 241753Z 33009KT 10SM CLR 12/01 A3019 RMK AO2 SLP225 T01170006 10117 20028 50005
    Wind: 330° @ 9kts
    Visibility: 10.0sm
    Clouds (AGL): CLR
    Temperature: 11.7°C
    Dew Point: 0.6°C
    Altimeter: 30.19 inHg
  • Current KAFW TAF
    (5.8nm NE)
    Raw Text: KAFW 241733Z 2418/2518 32009KT P6SM FEW200 FM250200 16005KT P6SM SKC FM251700 17013G23KT P6SM SCT060 BKN300